Time;durP1;ratioP1;P1;durP2;ratioP2;P2;SDS_P1;SDS_P2;PMS_P1;PMS_P2;Temp;Humidity;BMP_temperature;BMP_pressure;BME280_temperature;BME280_humidity;BME280_pressure;Samples;Min_cycle;Max_cycle;Signal;HPM_P1;HPM_P2
2022/07/20 00:00:47;;;;;;;6.47;3.67;;;;;;;20.27;46.71;100698.00;4992670;28;20065;-79
2022/07/20 00:03:13;;;;;;;9.82;5.18;;;;;;;20.22;46.83;100695.97;4993765;28;20380;-79
2022/07/20 00:05:39;;;;;;;13.60;5.30;;;;;;;20.18;46.92;100702.09;4993654;28;20030;-79
2022/07/20 00:08:05;;;;;;;7.35;3.78;;;;;;;20.13;47.12;100702.97;4993488;28;20376;-78
2022/07/20 00:13:15;;;;;;;9.32;4.00;;;;;;;20.04;47.49;100703.38;4993839;28;20172;-77
2022/07/20 00:15:42;;;;;;;9.43;3.53;;;;;;;20.01;47.32;100697.88;4993701;28;20073;-78
2022/07/20 00:18:07;;;;;;;6.20;3.42;;;;;;;19.96;47.32;100699.50;4993581;28;20125;-78
2022/07/20 00:20:33;;;;;;;5.40;3.22;;;;;;;19.89;47.81;100698.03;4993485;28;20109;-77
2022/07/20 00:22:59;;;;;;;8.48;3.40;;;;;;;19.86;47.70;100693.28;4976265;28;20034;-78
2022/07/20 00:25:25;;;;;;;8.43;3.65;;;;;;;19.79;47.90;100693.94;5008463;28;20026;-77
2022/07/20 00:27:51;;;;;;;5.32;3.15;;;;;;;19.75;48.07;100689.78;5008604;28;20463;-79
2022/07/20 00:30:17;;;;;;;6.90;4.28;;;;;;;19.71;48.62;100698.78;4976092;28;20511;-79
2022/07/20 00:32:42;;;;;;;12.35;4.22;;;;;;;19.70;48.53;100691.44;4992653;28;20030;-78
2022/07/20 00:35:10;;;;;;;9.20;3.90;;;;;;;19.69;48.60;100695.66;4993536;28;20033;-79
2022/07/20 00:37:35;;;;;;;9.00;4.13;;;;;;;19.67;48.71;100688.81;4993562;28;20034;-78
2022/07/20 00:40:01;;;;;;;9.43;3.63;;;;;;;19.65;48.96;100691.50;5028562;28;20034;-78
2022/07/20 00:42:27;;;;;;;9.57;4.22;;;;;;;19.61;48.76;100697.59;4995657;28;20045;-78
2022/07/20 00:44:52;;;;;;;7.65;3.92;;;;;;;19.56;50.56;100691.91;4979400;28;20472;-78
2022/07/20 00:47:18;;;;;;;7.90;3.60;;;;;;;19.49;50.52;100696.97;4979265;28;20033;-78
2022/07/20 00:49:43;;;;;;;4.72;3.58;;;;;;;19.42;50.20;100697.56;4994653;28;20478;-77
2022/07/20 00:52:09;;;;;;;9.27;3.95;;;;;;;19.37;50.67;100700.53;4994415;28;20058;-77
2022/07/20 00:54:34;;;;;;;9.77;4.20;;;;;;;19.38;50.60;100702.91;4994790;28;20041;-78
2022/07/20 00:57:00;;;;;;;10.18;4.68;;;;;;;19.36;50.36;100702.66;4977684;28;20471;-79
2022/07/20 00:59:25;;;;;;;12.23;4.40;;;;;;;19.35;50.86;100697.41;4993642;28;20026;-76
2022/07/20 01:01:51;;;;;;;4.97;3.45;;;;;;;19.32;50.47;100692.69;5009836;28;20119;-78
2022/07/20 01:04:16;;;;;;;6.45;3.58;;;;;;;19.32;51.22;100701.38;4993572;28;20471;-77
2022/07/20 01:06:42;;;;;;;7.85;4.10;;;;;;;19.33;51.47;100702.97;4978285;28;20026;-77
2022/07/20 01:09:08;;;;;;;10.73;4.05;;;;;;;19.33;51.30;100700.84;4976822;28;20407;-77
2022/07/20 01:11:34;;;;;;;6.05;4.20;;;;;;;19.33;51.10;100706.66;5025736;28;20467;-77
2022/07/20 01:14:01;;;;;;;7.55;3.60;;;;;;;19.30;51.16;100704.84;4976207;28;20476;-78
2022/07/20 01:16:27;;;;;;;9.18;4.10;;;;;;;19.31;51.29;100702.75;4992468;28;20447;-77
2022/07/20 01:18:52;;;;;;;5.72;4.07;;;;;;;19.28;51.52;100698.00;4993975;28;20030;-78
2022/07/20 01:21:17;;;;;;;10.25;4.57;;;;;;;19.24;52.82;100697.53;4992493;28;20037;-77
2022/07/20 01:23:43;;;;;;;9.05;3.70;;;;;;;19.19;52.78;100690.47;4995504;28;20030;-79
2022/07/20 01:26:08;;;;;;;12.90;4.72;;;;;;;19.21;53.13;100692.84;4994909;28;20026;-79
2022/07/20 01:28:34;;;;;;;8.63;4.97;;;;;;;19.16;52.50;100691.59;4995973;28;20027;-79
2022/07/20 01:30:59;;;;;;;5.72;4.32;;;;;;;19.12;52.69;100694.72;4995149;28;20027;-79
2022/07/20 01:33:25;;;;;;;8.10;3.72;;;;;;;19.08;52.13;100687.66;5010889;28;20022;-79
2022/07/20 01:35:50;;;;;;;11.40;4.00;;;;;;;19.04;51.93;100684.31;4994594;28;20482;-79
2022/07/20 01:38:15;;;;;;;8.68;4.13;;;;;;;19.03;52.30;100676.94;4995796;28;20464;-79
2022/07/20 01:40:41;;;;;;;8.90;4.57;;;;;;;19.01;52.23;100679.59;4994536;28;20030;-79
2022/07/20 01:43:06;;;;;;;8.73;4.55;;;;;;;18.96;51.82;100683.34;4995836;28;20034;-79
2022/07/20 01:45:32;;;;;;;8.30;3.97;;;;;;;18.97;52.19;100684.88;4995731;28;20038;-78
2022/07/20 01:47:57;;;;;;;12.60;4.53;;;;;;;18.94;52.74;100686.00;4995538;28;20129;-78
2022/07/20 01:50:23;;;;;;;12.82;4.18;;;;;;;18.90;52.35;100679.72;4994345;28;20026;-78
2022/07/20 01:52:48;;;;;;;9.52;4.93;;;;;;;18.91;52.75;100684.19;4994584;28;20121;-79
2022/07/20 01:55:13;;;;;;;8.05;4.03;;;;;;;18.88;52.72;100680.25;4995775;28;20026;-79
2022/07/20 01:57:39;;;;;;;7.70;4.28;;;;;;;18.85;52.62;100678.44;5010501;28;20054;-79
2022/07/20 02:00:07;;;;;;;7.28;3.92;;;;;;;18.85;52.82;100683.44;4995424;28;20034;-78
2022/07/20 02:02:32;;;;;;;8.23;4.18;;;;;;;18.81;53.03;100677.19;4994002;28;20385;-79
2022/07/20 02:04:57;;;;;;;7.78;4.05;;;;;;;18.79;52.63;100679.81;4994121;28;20522;-79
2022/07/20 02:07:23;;;;;;;7.40;4.60;;;;;;;18.75;52.85;100673.56;4995660;28;20109;-78
2022/07/20 02:09:48;;;;;;;9.40;4.30;;;;;;;18.68;53.75;100672.81;4977669;28;20031;-78
2022/07/20 02:12:14;;;;;;;12.35;4.35;;;;;;;18.66;54.23;100689.16;4995168;28;20038;-78
2022/07/20 02:14:39;;;;;;;10.00;3.95;;;;;;;18.63;54.25;100691.03;4994941;28;20050;-78
2022/07/20 02:17:04;;;;;;;13.13;4.55;;;;;;;18.56;54.39;100685.84;4995233;28;20030;-77
2022/07/20 02:19:30;;;;;;;8.93;3.90;;;;;;;18.52;54.48;100688.22;4993781;28;20365;-78
2022/07/20 02:21:55;;;;;;;8.80;4.50;;;;;;;18.51;54.73;100686.66;4993770;28;20034;-79
2022/07/20 02:24:20;;;;;;;8.48;4.10;;;;;;;18.48;54.51;100679.03;4994859;28;20373;-78
2022/07/20 02:26:46;;;;;;;10.38;4.93;;;;;;;18.44;54.11;100681.47;4995003;28;20101;-78
2022/07/20 02:29:12;;;;;;;7.30;4.55;;;;;;;18.43;54.25;100679.09;4994764;28;20030;-78
2022/07/20 02:31:37;;;;;;;7.15;3.85;;;;;;;18.39;54.86;100685.19;4994814;28;20107;-76
2022/07/20 02:34:02;;;;;;;8.50;4.85;;;;;;;18.36;55.18;100688.38;4994901;28;20026;-78
2022/07/20 02:36:28;;;;;;;8.38;3.90;;;;;;;18.32;55.28;100679.22;4977072;28;20031;-78
2022/07/20 02:38:53;;;;;;;10.63;5.07;;;;;;;18.25;56.25;100678.44;4995040;28;20088;-78
2022/07/20 02:41:19;;;;;;;9.05;4.72;;;;;;;18.26;57.01;100696.56;4994710;28;20475;-79
2022/07/20 02:43:44;;;;;;;14.82;4.95;;;;;;;18.22;56.83;100691.09;4994828;28;20026;-78
2022/07/20 02:46:09;;;;;;;8.07;5.03;;;;;;;18.15;57.87;100696.66;4993338;28;20486;-78
2022/07/20 02:48:35;;;;;;;9.80;4.38;;;;;;;18.12;57.03;100695.63;4977155;28;20134;-79
2022/07/20 02:51:01;;;;;;;5.65;3.63;;;;;;;18.10;57.23;100704.03;4993498;28;20100;-78
2022/07/20 02:53:27;;;;;;;7.57;4.13;;;;;;;18.09;57.52;100701.69;4994719;28;20037;-79
2022/07/20 02:55:53;;;;;;;10.13;4.93;;;;;;;18.06;57.23;100712.22;4994549;28;20423;-78
2022/07/20 02:58:19;;;;;;;11.18;6.25;;;;;;;18.00;58.27;100705.69;4995469;28;20040;-78
2022/07/20 03:00:44;;;;;;;10.27;4.00;;;;;;;18.00;58.22;100708.59;4997377;28;20464;-77
2022/07/20 03:03:10;;;;;;;10.25;4.47;;;;;;;17.97;58.56;100703.09;4996765;28;20048;-78
2022/07/20 03:05:36;;;;;;;8.35;4.82;;;;;;;17.95;58.84;100702.84;4994831;28;20054;-79
2022/07/20 03:08:01;;;;;;;9.50;5.13;;;;;;;17.96;58.62;100702.31;5026090;28;20033;-77
2022/07/20 03:10:27;;;;;;;12.65;5.00;;;;;;;17.96;60.63;100696.53;4993046;28;20471;-78
2022/07/20 03:12:52;;;;;;;7.03;4.75;;;;;;;17.91;60.49;100700.22;4993180;28;20031;-78
2022/07/20 03:15:18;;;;;;;7.72;4.80;;;;;;;17.93;61.45;100703.34;4993732;28;20049;-78
2022/07/20 03:17:48;;;;;;;6.68;3.92;;;;;;;17.96;61.83;100696.53;4976536;28;20022;-79
2022/07/20 03:20:27;;;;;;;7.32;4.68;;;;;;;18.00;62.69;100704.91;5009635;28;20042;-79
2022/07/20 03:22:54;;;;;;;8.70;5.40;;;;;;;18.01;62.80;100715.94;5025687;28;20109;-79
2022/07/20 03:25:20;;;;;;;9.68;5.53;;;;;;;18.04;62.80;100711.97;4992980;28;20030;-78
2022/07/20 03:27:47;;;;;;;7.10;4.85;;;;;;;18.06;62.86;100711.44;4976657;28;20041;-78
2022/07/20 03:30:13;;;;;;;7.65;5.63;;;;;;;18.09;63.15;100711.16;4994002;28;20057;-78
2022/07/20 03:32:41;;;;;;;8.88;5.15;;;;;;;18.10;63.05;100712.72;5009146;28;20026;-79
2022/07/20 03:35:07;;;;;;;9.90;4.72;;;;;;;18.11;63.25;100707.72;4993148;28;20380;-79
2022/07/20 03:37:32;;;;;;;11.68;5.47;;;;;;;18.11;63.81;100704.84;5008896;28;20034;-79
2022/07/20 03:40:00;;;;;;;6.30;5.32;;;;;;;18.08;64.16;100708.81;4994233;28;20098;-78
2022/07/20 03:42:26;;;;;;;9.55;4.72;;;;;;;18.05;64.73;100718.53;5008909;28;20034;-77
2022/07/20 03:44:54;;;;;;;8.07;4.30;;;;;;;18.06;64.46;100720.13;4993833;28;20037;-78
2022/07/20 03:47:19;;;;;;;11.10;4.93;;;;;;;18.07;64.28;100721.69;4975826;28;20066;-78
2022/07/20 03:49:45;;;;;;;9.38;4.50;;;;;;;18.09;64.00;100725.63;4992698;28;20153;-78
2022/07/20 03:52:11;;;;;;;7.07;4.47;;;;;;;18.19;63.97;100737.66;5009208;28;20482;-78
2022/07/20 03:54:37;;;;;;;6.50;4.43;;;;;;;18.24;63.14;100728.16;5008855;28;20058;-78
2022/07/20 03:57:04;;;;;;;6.82;4.28;;;;;;;18.33;62.85;100738.63;4993786;28;20092;-77
2022/07/20 03:59:30;;;;;;;14.45;6.47;;;;;;;18.39;62.83;100734.38;4992685;28;20026;-79
2022/07/20 04:01:56;;;;;;;10.80;5.28;;;;;;;18.48;62.09;100730.34;4976044;28;20041;-78
2022/07/20 04:04:22;;;;;;;8.20;4.68;;;;;;;18.59;62.08;100731.06;4992620;28;20113;-79
2022/07/20 04:06:47;;;;;;;11.45;4.47;;;;;;;18.68;61.40;100727.03;4994124;28;20150;-78
2022/07/20 04:09:13;;;;;;;9.45;4.80;;;;;;;18.76;60.83;100730.94;4992588;28;20399;-77
2022/07/20 04:11:43;;;;;;;20.25;6.40;;;;;;;18.84;60.34;100731.91;4993738;28;20121;-79
2022/07/20 04:14:09;;;;;;;10.80;4.28;;;;;;;18.93;60.04;100727.84;4995621;28;20053;-78
2022/07/20 04:16:35;;;;;;;8.63;4.70;;;;;;;18.98;59.03;100733.59;4996952;28;20049;-78
2022/07/20 04:19:02;;;;;;;7.68;4.70;;;;;;;19.07;59.15;100733.25;4996173;28;20034;-77
2022/07/20 04:21:28;;;;;;;10.68;5.07;;;;;;;19.19;58.57;100724.47;5016279;28;20407;-80
2022/07/20 04:23:55;;;;;;;11.55;5.00;;;;;;;19.30;58.09;100730.94;4998735;28;20038;-78
2022/07/20 04:26:21;;;;;;;9.32;5.30;;;;;;;19.40;57.28;100731.34;5016776;28;20467;-78
2022/07/20 04:28:46;;;;;;;11.23;4.97;;;;;;;19.50;56.90;100733.34;5016886;28;20076;-78
2022/07/20 04:31:12;;;;;;;12.73;5.35;;;;;;;19.61;56.34;100726.59;4997245;28;20109;-79
2022/07/20 04:33:38;;;;;;;8.95;5.03;;;;;;;19.72;55.92;100728.56;5014492;28;20095;-79
2022/07/20 04:36:04;;;;;;;6.38;4.25;;;;;;;19.82;55.26;100729.75;4999180;28;20033;-78
2022/07/20 04:38:31;;;;;;;6.78;4.22;;;;;;;19.92;54.84;100730.94;5016280;28;20042;-79
2022/07/20 04:40:56;;;;;;;10.77;4.85;;;;;;;20.02;54.20;100723.44;5016511;28;20030;-77
2022/07/20 04:43:23;;;;;;;9.77;4.63;;;;;;;20.10;54.17;100727.28;5016484;28;20030;-78
2022/07/20 04:45:48;;;;;;;7.00;4.53;;;;;;;20.24;53.47;100731.81;4998961;28;20056;-78
2022/07/20 04:48:18;;;;;;;10.57;5.50;;;;;;;20.32;52.85;100726.94;5013507;28;20037;-76
2022/07/20 04:50:44;;;;;;;9.25;5.68;;;;;;;20.43;52.70;100733.91;5014494;28;20030;-78
2022/07/20 04:53:10;;;;;;;22.08;6.20;;;;;;;20.55;52.83;100726.56;5015802;28;20030;-80
2022/07/20 04:55:39;;;;;;;21.45;7.75;;;;;;;20.62;52.80;100743.38;5015774;28;20383;-77
2022/07/20 04:58:04;;;;;;;10.50;4.95;;;;;;;20.65;52.66;100736.44;4996606;28;20034;-79
2022/07/20 05:00:30;;;;;;;7.82;4.38;;;;;;;20.73;52.07;100743.22;4996377;28;20046;-79
2022/07/20 05:02:56;;;;;;;11.43;5.03;;;;;;;20.74;51.97;100744.78;4996901;28;20034;-79
2022/07/20 05:05:23;;;;;;;9.60;5.15;;;;;;;20.73;52.14;100746.91;4996766;28;20121;-78
2022/07/20 05:07:48;;;;;;;11.88;6.15;;;;;;;20.65;52.45;100743.03;4996392;28;20463;-76
2022/07/20 05:10:15;;;;;;;11.60;4.93;;;;;;;20.61;52.65;100735.97;4996352;28;20042;-77
2022/07/20 05:12:55;;;;;;;7.47;4.63;;;;;;;20.68;52.53;100736.13;4996715;28;20114;-77
2022/07/20 05:15:29;;;;;;;8.98;4.75;;;;;;;20.83;52.63;100746.47;4994882;28;20089;-77
2022/07/20 05:17:54;;;;;;;12.57;5.20;;;;;;;20.97;52.57;100740.16;4995054;28;20026;-77
2022/07/20 05:20:20;;;;;;;8.73;5.20;;;;;;;21.05;52.32;100735.22;4998264;28;20033;-81
2022/07/20 05:22:45;;;;;;;7.93;5.03;;;;;;;21.11;51.99;100746.75;4996679;28;20068;-78
2022/07/20 05:25:12;;;;;;;7.97;3.85;;;;;;;21.13;51.92;100747.00;5013033;28;20459;-80
2022/07/20 05:27:52;;;;;;;11.27;5.55;;;;;;;21.20;51.77;100746.31;4999060;28;20060;-78
2022/07/20 05:30:20;;;;;;;13.90;4.63;;;;;;;21.29;51.83;100742.22;5014882;28;20036;-77
2022/07/20 05:32:46;;;;;;;9.63;4.63;;;;;;;21.44;51.16;100746.09;5015194;28;20461;-77
2022/07/20 05:35:12;;;;;;;14.43;6.07;;;;;;;21.62;51.11;100742.34;5015280;28;20121;-77
2022/07/20 05:37:39;;;;;;;12.07;4.15;;;;;;;21.89;50.93;100745.22;4997843;28;20463;-78
2022/07/20 05:40:14;;;;;;;4.80;3.75;;;;;;;22.04;49.87;100736.66;5014197;28;20525;-79
2022/07/20 05:42:40;;;;;;;10.70;4.45;;;;;;;22.14;49.74;100740.69;5013437;28;20497;-78
2022/07/20 05:45:06;;;;;;;8.75;4.18;;;;;;;22.23;50.32;100742.34;5013391;28;20061;-77
2022/07/20 05:47:31;;;;;;;10.88;4.22;;;;;;;22.36;50.21;100743.13;4995292;28;20036;-76
2022/07/20 05:49:57;;;;;;;10.20;4.25;;;;;;;22.52;49.90;100741.91;5013148;28;20088;-78
2022/07/20 05:52:23;;;;;;;12.32;4.28;;;;;;;22.69;49.55;100732.75;5011605;28;20030;-77
2022/07/20 05:54:48;;;;;;;12.82;4.38;;;;;;;22.88;49.94;100729.66;4995212;28;20329;-77
2022/07/20 05:57:14;;;;;;;10.18;4.55;;;;;;;23.30;49.31;100747.88;4995174;28;20029;-77
2022/07/20 05:59:40;;;;;;;12.85;5.18;;;;;;;23.50;48.52;100740.44;5012713;28;20034;-78
2022/07/20 06:02:05;;;;;;;11.02;4.63;;;;;;;23.69;48.20;100747.59;5012561;28;20083;-77
2022/07/20 06:04:31;;;;;;;6.82;4.13;;;;;;;23.89;46.85;100748.06;5011673;28;20022;-78
2022/07/20 06:06:56;;;;;;;6.82;4.22;;;;;;;24.06;46.10;100760.78;5012741;28;20101;-77
2022/07/20 06:09:21;;;;;;;4.65;3.88;;;;;;;24.20;45.12;100755.56;5012623;28;20050;-76
2022/07/20 06:11:47;;;;;;;7.18;3.78;;;;;;;24.34;44.56;100754.13;5012362;28;20033;-76
2022/07/20 06:14:12;;;;;;;10.93;4.10;;;;;;;24.91;44.20;100756.78;5012195;28;20402;-76
2022/07/20 06:16:37;;;;;;;16.83;4.00;;;;;;;26.37;40.67;100756.69;5011218;28;20033;-77
2022/07/20 06:19:03;;;;;;;7.70;3.55;;;;;;;27.82;38.67;100754.16;5012454;28;20041;-77
2022/07/20 06:21:28;;;;;;;8.15;3.42;;;;;;;28.43;36.97;100756.34;4997003;28;20026;-77
2022/07/20 06:23:54;;;;;;;13.73;5.10;;;;;;;28.32;35.73;100762.78;5014742;28;20109;-77
2022/07/20 06:26:21;;;;;;;6.88;3.65;;;;;;;28.23;35.88;100758.41;5014515;28;20455;-76
2022/07/20 06:28:47;;;;;;;14.13;3.95;;;;;;;28.82;36.54;100769.16;5014578;28;20105;-77
2022/07/20 06:31:12;;;;;;;6.57;3.22;;;;;;;31.04;33.87;100762.03;5012851;28;20120;-77
2022/07/20 06:33:38;;;;;;;8.88;4.15;;;;;;;33.60;30.56;100754.16;5013262;28;20045;-77
2022/07/20 06:36:03;;;;;;;5.90;3.03;;;;;;;36.06;27.17;100742.97;5013247;28;20076;-76
2022/07/20 06:38:29;;;;;;;8.35;3.50;;;;;;;38.13;24.86;100751.38;5014554;28;20030;-77
2022/07/20 06:40:54;;;;;;;5.22;3.25;;;;;;;39.57;20.79;100754.22;5014391;28;20029;-76
2022/07/20 06:43:22;;;;;;;13.68;3.60;;;;;;;40.96;20.90;100745.53;5012905;28;20434;-77
2022/07/20 06:45:49;;;;;;;11.25;4.57;;;;;;;42.48;17.86;100752.84;5012563;28;20080;-76
2022/07/20 06:48:16;;;;;;;12.55;3.78;;;;;;;43.49;18.39;100746.91;5013973;28;20050;-77
2022/07/20 06:50:41;;;;;;;14.23;3.30;;;;;;;44.95;15.65;100743.47;5013066;28;20034;-76
2022/07/20 06:53:09;;;;;;;8.55;3.10;;;;;;;45.63;16.23;100740.59;4996695;28;20033;-77
2022/07/20 06:55:35;;;;;;;5.40;2.83;;;;;;;46.19;16.14;100742.69;5014331;28;20120;-76
2022/07/20 06:58:02;;;;;;;10.95;2.72;;;;;;;47.12;14.50;100737.31;5014062;28;20045;-77
2022/07/20 07:00:29;;;;;;;6.05;2.97;;;;;;;48.04;15.00;100735.31;5014354;28;20029;-77
2022/07/20 07:02:56;;;;;;;7.05;3.00;;;;;;;49.09;12.76;100741.31;5014123;28;20029;-77
2022/07/20 07:05:22;;;;;;;5.90;2.70;;;;;;;49.59;12.78;100743.38;5012930;28;20037;-77
2022/07/20 07:07:48;;;;;;;6.10;3.03;;;;;;;50.29;11.83;100738.34;5014265;28;20053;-74
2022/07/20 07:10:24;;;;;;;7.18;2.80;;;;;;;51.21;12.32;100722.91;5012805;28;20038;-76
2022/07/20 07:12:51;;;;;;;6.35;2.72;;;;;;;52.02;10.81;100728.63;5012671;28;20026;-76
2022/07/20 07:15:16;;;;;;;7.18;2.90;;;;;;;52.60;10.12;100720.75;5013582;28;20412;-77
2022/07/20 07:17:43;;;;;;;5.55;3.00;;;;;;;53.05;10.35;100729.81;5012212;28;20029;-76
2022/07/20 07:20:10;;;;;;;3.10;2.80;;;;;;;53.56;9.68;100728.69;5013294;28;20029;-75
2022/07/20 07:22:36;;;;;;;2.63;2.22;;;;;;;54.06;9.47;100720.59;4997201;28;20400;-74
2022/07/20 07:25:04;;;;;;;4.95;2.35;;;;;;;54.59;9.40;100719.25;5013675;28;20096;-75
2022/07/20 07:27:29;;;;;;;15.60;3.97;;;;;;;54.96;8.64;100712.81;4995934;28;20116;-74
2022/07/20 07:29:56;;;;;;;5.50;3.40;;;;;;;54.93;8.81;100712.16;5012855;28;20372;-76
2022/07/20 07:32:23;;;;;;;7.43;3.00;;;;;;;55.02;8.74;100712.66;5013458;28;20058;-75
2022/07/20 07:34:49;;;;;;;5.57;3.03;;;;;;;55.46;8.51;100711.31;5012134;28;20549;-76
2022/07/20 07:37:15;;;;;;;4.97;2.20;;;;;;;55.73;7.82;100707.38;5012548;28;20049;-75
2022/07/20 07:39:41;;;;;;;7.05;2.40;;;;;;;56.20;7.79;100722.69;4996396;28;20038;-75
2022/07/20 07:42:08;;;;;;;4.95;2.20;;;;;;;56.35;7.74;100701.44;5012079;28;20034;-75
2022/07/20 07:44:35;;;;;;;6.05;3.97;;;;;;;56.62;7.56;100695.84;5013379;28;20118;-75
2022/07/20 07:47:01;;;;;;;3.65;2.20;;;;;;;57.02;6.77;100702.78;5014046;28;20052;-78
2022/07/20 07:49:27;;;;;;;11.13;3.92;;;;;;;57.29;7.33;100693.31;5016423;28;20439;-79
2022/07/20 07:51:52;;;;;;;15.77;2.45;;;;;;;57.45;7.06;100698.03;5015791;28;20072;-78
2022/07/20 07:54:18;;;;;;;2.17;1.98;;;;;;;57.50;6.94;100687.09;5017382;28;20372;-77
2022/07/20 07:56:44;;;;;;;5.10;2.33;;;;;;;57.20;7.17;100685.97;5015892;28;20383;-81
2022/07/20 07:59:10;;;;;;;2.50;1.90;;;;;;;57.06;6.70;100681.13;5000041;28;20030;-78
2022/07/20 08:01:37;;;;;;;3.60;3.05;;;;;;;57.17;6.68;100681.44;5019549;28;20053;-77
2022/07/20 08:04:04;;;;;;;3.38;2.15;;;;;;;57.48;6.62;100666.34;5003077;28;20068;-78
2022/07/20 08:06:30;;;;;;;2.95;2.20;;;;;;;57.64;5.96;100671.84;5003576;28;20034;-77
2022/07/20 08:08:57;;;;;;;4.93;2.40;;;;;;;57.99;6.11;100677.31;4999790;28;20234;-77
2022/07/20 08:11:26;;;;;;;4.72;1.85;;;;;;;58.12;5.60;100676.78;5015912;28;20033;-78
2022/07/20 08:13:53;;;;;;;10.57;2.22;;;;;;;58.38;5.79;100676.38;5017297;28;20042;-78
2022/07/20 08:16:19;;;;;;;3.72;1.90;;;;;;;58.79;6.02;100677.59;5017698;28;20084;-78
2022/07/20 08:18:44;;;;;;;2.75;1.80;;;;;;;59.10;6.07;100679.97;4999681;28;20422;-79
2022/07/20 08:21:10;;;;;;;2.10;1.90;;;;;;;59.29;5.35;100674.44;5015801;28;20037;-79
2022/07/20 08:23:36;;;;;;;2.10;1.90;;;;;;;59.05;5.82;100667.09;5015638;28;20030;-79
2022/07/20 08:26:01;;;;;;;7.13;2.38;;;;;;;58.99;4.90;100657.41;5016688;28;20025;-78
2022/07/20 08:28:28;;;;;;;5.63;2.20;;;;;;;59.00;5.30;100668.88;4999117;28;20021;-77
2022/07/20 08:30:53;;;;;;;3.47;2.13;;;;;;;58.89;5.33;100667.88;5016863;28;20022;-77
2022/07/20 08:33:19;;;;;;;3.90;2.30;;;;;;;59.06;5.65;100665.50;5016841;28;20463;-78
2022/07/20 08:35:45;;;;;;;12.38;2.60;;;;;;;58.82;4.89;100661.25;5015486;28;20029;-77
2022/07/20 08:38:13;;;;;;;7.35;3.10;;;;;;;58.46;5.60;100666.00;4999017;28;20022;-78
2022/07/20 08:40:39;;;;;;;8.25;2.83;;;;;;;57.90;5.15;100660.03;5015241;28;20027;-78
2022/07/20 08:43:06;;;;;;;7.50;2.85;;;;;;;55.77;6.14;100648.97;5015448;28;20028;-77
2022/07/20 08:45:33;;;;;;;4.30;1.90;;;;;;;54.50;6.52;100669.66;5015249;28;20403;-77
2022/07/20 08:48:02;;;;;;;4.82;1.88;;;;;;;53.94;7.22;100659.72;5015181;28;20022;-78
2022/07/20 08:50:30;;;;;;;2.67;1.65;;;;;;;53.33;6.73;100654.31;5016505;28;20022;-75
2022/07/20 08:52:56;;;;;;;6.15;2.25;;;;;;;52.77;7.16;100657.06;5015198;28;20479;-76
2022/07/20 08:55:22;;;;;;;3.42;1.83;;;;;;;52.07;7.88;100643.88;5013853;28;20037;-76
2022/07/20 08:57:49;;;;;;;4.90;2.20;;;;;;;51.94;7.79;100655.50;4982518;28;20482;-77
2022/07/20 09:00:15;;;;;;;3.10;1.80;;;;;;;51.34;7.72;100651.84;5014195;28;20040;-76
2022/07/20 09:03:04;;;;;;;9.30;2.40;;;;;;;51.04;8.72;100646.94;5014777;28;20032;-76
2022/07/20 09:05:32;;;;;;;6.18;1.70;;;;;;;50.93;8.19;100657.00;5015855;28;20025;-78
2022/07/20 09:07:59;;;;;;;4.07;1.80;;;;;;;50.69;8.26;100645.09;4998687;28;20026;-77
2022/07/20 09:10:32;;;;;;;6.70;2.03;;;;;;;50.53;7.60;100643.78;4998107;28;20030;-79
2022/07/20 09:13:04;;;;;;;4.90;2.17;;;;;;;50.33;8.84;100647.00;4998329;28;20044;-78
2022/07/20 09:15:39;;;;;;;5.35;2.08;;;;;;;49.76;8.24;100640.66;5015682;28;20069;-77
2022/07/20 09:18:14;;;;;;;6.82;2.08;;;;;;;49.52;8.64;100647.69;5015632;28;20104;-74
2022/07/20 09:20:46;;;;;;;3.00;1.88;;;;;;;49.37;8.89;100658.38;5015640;28;20030;-74
2022/07/20 09:23:21;;;;;;;3.95;1.80;;;;;;;49.12;9.11;100654.75;4997995;28;20052;-73
2022/07/20 09:25:54;;;;;;;3.60;2.08;;;;;;;48.62;8.96;100655.69;5014273;28;20157;-74
2022/07/20 09:28:20;;;;;;;6.30;2.00;;;;;;;48.07;10.07;100655.75;5014175;28;20080;-74
2022/07/20 09:31:01;;;;;;;3.90;1.75;;;;;;;47.76;10.08;100657.25;5014495;28;20163;-77
2022/07/20 09:33:29;;;;;;;1.73;1.60;;;;;;;47.34;9.99;100648.81;5015282;28;20057;-78
2022/07/20 09:35:57;;;;;;;3.60;1.92;;;;;;;46.93;10.03;100653.19;5014213;28;20026;-77
2022/07/20 09:38:43;;;;;;;3.83;2.10;;;;;;;46.36;10.65;100649.84;5014109;28;20463;-77
2022/07/20 09:41:34;;;;;;;7.97;2.22;;;;;;;45.87;10.32;100648.66;5014731;28;20502;-77
2022/07/20 09:44:05;;;;;;;2.78;1.88;;;;;;;45.46;10.65;100647.50;4997638;28;20471;-78
2022/07/20 09:46:36;;;;;;;3.33;2.10;;;;;;;45.02;11.32;100650.75;4997641;28;20058;-76
2022/07/20 09:49:05;;;;;;;4.18;2.08;;;;;;;44.48;11.87;100642.44;4997847;28;20029;-77
2022/07/20 09:51:37;;;;;;;9.65;2.67;;;;;;;44.09;11.93;100646.31;5013956;28;20034;-77
2022/07/20 09:54:08;;;;;;;3.28;1.80;;;;;;;43.83;12.18;100643.66;5015085;28;20030;-77
2022/07/20 09:56:36;;;;;;;2.10;1.85;;;;;;;43.63;12.27;100652.31;5014910;28;20455;-76
2022/07/20 09:59:11;;;;;;;3.08;2.28;;;;;;;43.26;12.21;100642.56;5013854;28;20487;-74
2022/07/20 10:01:53;;;;;;;5.35;2.00;;;;;;;42.77;12.15;100628.75;5015005;28;20026;-73
2022/07/20 10:04:21;;;;;;;2.15;1.95;;;;;;;42.39;12.32;100639.88;5014769;28;20057;-74
2022/07/20 10:06:48;;;;;;;4.93;2.95;;;;;;;42.11;12.74;100633.94;5013888;28;20052;-75
2022/07/20 10:09:15;;;;;;;4.53;1.88;;;;;;;41.83;13.26;100634.72;5014566;28;20076;-75
2022/07/20 10:11:43;;;;;;;8.63;2.38;;;;;;;41.60;13.24;100634.88;5013641;28;20025;-74
2022/07/20 10:14:10;;;;;;;7.35;2.97;;;;;;;41.40;13.43;100638.06;5014620;28;20034;-76
2022/07/20 10:16:53;;;;;;;5.65;2.50;;;;;;;41.13;12.90;100630.56;5013486;28;20028;-75
2022/07/20 10:19:43;;;;;;;4.88;2.53;;;;;;;40.96;13.04;100632.31;4997252;28;20110;-75
2022/07/20 10:22:09;;;;;;;14.40;3.10;;;;;;;40.60;13.53;100628.97;5013373;28;20036;-75
2022/07/20 10:24:38;;;;;;;5.97;2.75;;;;;;;40.36;14.26;100631.19;5013045;28;20076;-78
2022/07/20 10:27:26;;;;;;;4.75;2.47;;;;;;;40.03;14.22;100638.34;4997109;28;20025;-73
2022/07/20 10:29:58;;;;;;;4.50;2.60;;;;;;;39.59;14.65;100625.59;5013506;28;20084;-75
2022/07/20 10:32:29;;;;;;;12.07;3.00;;;;;;;39.35;14.88;100630.69;5013264;28;20056;-76
2022/07/20 10:35:27;;;;;;;3.47;2.25;;;;;;;39.14;15.55;100640.41;5013146;28;20503;-73
2022/07/20 10:37:52;;;;;;;4.97;2.40;;;;;;;38.95;14.82;100636.69;5014220;28;20021;-73
2022/07/20 10:40:28;;;;;;;5.63;2.28;;;;;;;38.77;15.67;100632.25;5012710;28;20474;-73
2022/07/20 10:43:15;;;;;;;6.40;2.70;;;;;;;38.68;15.07;100637.16;5014107;28;20029;-74
2022/07/20 10:45:42;;;;;;;4.30;1.90;;;;;;;38.60;15.22;100627.84;5014025;28;20123;-73
2022/07/20 10:48:14;;;;;;;5.40;2.50;;;;;;;38.54;16.48;100630.59;5012844;28;20032;-72
2022/07/20 10:50:49;;;;;;;8.43;3.03;;;;;;;38.46;16.09;100622.06;5014193;28;20032;-74
2022/07/20 10:53:21;;;;;;;12.07;3.47;;;;;;;38.41;17.04;100623.34;5012943;28;20040;-72
2022/07/20 10:55:53;;;;;;;2.33;1.52;;;;;;;38.31;16.66;100625.19;5013880;28;20034;-73
2022/07/20 10:58:27;;;;;;;3.55;2.40;;;;;;;38.19;17.40;100622.47;5014296;28;20051;-73
2022/07/20 11:01:16;;;;;;;4.32;2.42;;;;;;;38.06;16.88;100618.19;5012997;28;20050;-72
2022/07/20 11:03:45;;;;;;;5.78;3.22;;;;;;;37.84;15.89;100617.28;5014311;28;20022;-72
2022/07/20 11:06:16;;;;;;;8.77;3.40;;;;;;;37.61;16.26;100614.78;5013746;28;20030;-72
2022/07/20 11:08:48;;;;;;;8.38;2.63;;;;;;;37.40;15.72;100622.06;5012426;28;20028;-73
2022/07/20 11:11:20;;;;;;;5.55;2.42;;;;;;;37.09;16.04;100616.94;4996093;28;20494;-72
2022/07/20 11:13:46;;;;;;;5.57;2.40;;;;;;;36.87;16.99;100612.94;5012627;28;20050;-73
2022/07/20 11:16:24;;;;;;;3.20;2.15;;;;;;;36.81;17.23;100603.72;4996213;28;20018;-72
2022/07/20 11:19:01;;;;;;;9.32;2.88;;;;;;;36.81;17.47;100606.69;5013841;28;20033;-72
2022/07/20 11:21:30;;;;;;;2.78;2.40;;;;;;;36.77;18.77;100610.25;5013632;28;20033;-73
2022/07/20 11:23:55;;;;;;;7.85;3.78;;;;;;;36.76;17.83;100604.97;4995711;28;20542;-73
2022/07/20 11:26:22;;;;;;;7.03;2.92;;;;;;;36.66;16.80;100605.25;5012322;28;20033;-72
2022/07/20 11:28:54;;;;;;;4.78;2.95;;;;;;;36.43;17.05;100600.44;5013462;28;20182;-73